New Germantown, Pennsylvania
Current Conditions -  °F | °C
As of 9:07 AM on Saturday 01 Nov 2014 (Local Time) from KCXY Reporting Station
Light Rain Light Rain  
Wind Chill: 45°   Ceiling: 3000
Heat Index: 48°   Visibility: 10mi
Dew Point: 41°   Wind: 6mph
Humidity: 77%   Direction: 350°N
Pressure: 29.87"   Gusts: NA
Location:  40.31°N, 77.57°W
Report Text: KCXY 011307Z 35005KT 10SM -RA OVC030 09/05 A2987 RMK AO2 P0000 T00890050
Loading
Personal Weather Stations






























Interactive Weather Map
Tropical Storm Tracking
New forecast layout! Learn more

10-Day Weather Forecast

Advertisements
Track Severe Weather on mobile